sensor_id;sensor_type;location;lat;lon;timestamp;noise_LAeq;noise_LA_min;noise_LA_max;noise_LA01;noise_LA95
45246;Laerm;31529;51.158;7.354;2023-01-30T00:00:01;41.36;28.97;51.34;;
45246;Laerm;31529;51.158;7.354;2023-01-30T00:00:32;41.36;32.65;54.57;;
45246;Laerm;31529;51.158;7.354;2023-01-30T00:01:04;39.44;32.65;45.47;;
45246;Laerm;31529;51.158;7.354;2023-01-30T00:01:36;43.86;38.18;55.24;;
45246;Laerm;31529;51.158;7.354;2023-01-30T00:02:06;42.46;33.23;50.87;;
45246;Laerm;31529;51.158;7.354;2023-01-30T00:02:37;41.16;31.19;51.63;;
45246;Laerm;31529;51.158;7.354;2023-01-30T00:03:08;45.12;35.34;60.47;;
45246;Laerm;31529;51.158;7.354;2023-01-30T00:03:39;47.68;33.74;63.55;;
45246;Laerm;31529;51.158;7.354;2023-01-30T00:04:10;44.62;34.99;57.00;;
45246;Laerm;31529;51.158;7.354;2023-01-30T00:04:44;44.33;28.97;59.20;;
45246;Laerm;31529;51.158;7.354;2023-01-30T00:05:15;45.78;31.98;57.33;;
45246;Laerm;31529;51.158;7.354;2023-01-30T00:05:46;42.12;33.23;55.50;;
45246;Laerm;31529;51.158;7.354;2023-01-30T00:06:17;40.87;33.23;48.45;;
45246;Laerm;31529;51.158;7.354;2023-01-30T00:06:48;54.64;34.61;67.03;;
45246;Laerm;31529;51.158;7.354;2023-01-30T00:07:18;49.94;32.65;64.52;;
45246;Laerm;31529;51.158;7.354;2023-01-30T00:07:49;46.04;27.21;62.69;;
45246;Laerm;31529;51.158;7.354;2023-01-30T00:08:20;41.51;33.23;53.37;;
45246;Laerm;31529;51.158;7.354;2023-01-30T00:08:51;42.84;28.97;54.50;;
45246;Laerm;31529;51.158;7.354;2023-01-30T00:09:21;64.67;34.99;80.06;;
45246;Laerm;31529;51.158;7.354;2023-01-30T00:09:52;53.11;33.23;65.24;;
45246;Laerm;31529;51.158;7.354;2023-01-30T00:10:23;46.07;34.61;59.20;;
45246;Laerm;31529;51.158;7.354;2023-01-30T00:10:54;42.32;34.99;51.03;;
45246;Laerm;31529;51.158;7.354;2023-01-30T00:11:25;40.73;31.19;48.87;;
45246;Laerm;31529;51.158;7.354;2023-01-30T00:11:58;43.14;27.21;54.27;;
45246;Laerm;31529;51.158;7.354;2023-01-30T00:12:29;42.50;34.20;54.06;;
45246;Laerm;31529;51.158;7.354;2023-01-30T00:13:00;51.58;35.96;65.73;;
45246;Laerm;31529;51.158;7.354;2023-01-30T00:13:30;44.96;33.23;57.16;;
45246;Laerm;31529;51.158;7.354;2023-01-30T00:14:01;45.53;34.20;58.01;;
45246;Laerm;31529;51.158;7.354;2023-01-30T00:14:32;42.14;33.74;53.27;;
45246;Laerm;31529;51.158;7.354;2023-01-30T00:15:03;42.35;35.34;56.44;;
45246;Laerm;31529;51.158;7.354;2023-01-30T00:15:34;42.46;33.74;53.08;;
45246;Laerm;31529;51.158;7.354;2023-01-30T00:16:05;42.46;35.34;54.54;;
45246;Laerm;31529;51.158;7.354;2023-01-30T00:16:36;45.25;34.61;56.63;;
45246;Laerm;31529;51.158;7.354;2023-01-30T00:17:07;49.15;35.66;63.79;;
45246;Laerm;31529;51.158;7.354;2023-01-30T00:17:37;43.63;34.99;56.12;;
45246;Laerm;31529;51.158;7.354;2023-01-30T00:18:08;56.07;36.99;68.34;;
45246;Laerm;31529;51.158;7.354;2023-01-30T00:18:40;47.08;38.82;64.90;;
45246;Laerm;31529;51.158;7.354;2023-01-30T00:19:11;40.56;34.20;51.51;;
45246;Laerm;31529;51.158;7.354;2023-01-30T00:19:41;42.03;30.84;57.17;;
45246;Laerm;31529;51.158;7.354;2023-01-30T00:20:12;50.61;36.24;65.55;;
45246;Laerm;31529;51.158;7.354;2023-01-30T00:20:43;46.60;33.23;58.20;;
45246;Laerm;31529;51.158;7.354;2023-01-30T00:21:14;47.16;33.74;64.29;;
45246;Laerm;31529;51.158;7.354;2023-01-30T00:21:45;45.48;31.98;61.60;;
45246;Laerm;31529;51.158;7.354;2023-01-30T00:22:15;44.97;34.99;56.03;;
45246;Laerm;31529;51.158;7.354;2023-01-30T00:22:46;44.60;33.23;56.19;;
45246;Laerm;31529;51.158;7.354;2023-01-30T00:23:17;41.81;30.22;52.94;;
45246;Laerm;31529;51.158;7.354;2023-01-30T00:23:48;42.26;31.19;53.70;;
45246;Laerm;31529;51.158;7.354;2023-01-30T00:24:19;46.98;33.74;58.81;;
45246;Laerm;31529;51.158;7.354;2023-01-30T00:24:49;45.50;36.50;56.40;;
45246;Laerm;31529;51.158;7.354;2023-01-30T00:25:20;52.54;35.34;69.31;;
45246;Laerm;31529;51.158;7.354;2023-01-30T00:25:51;47.72;36.50;63.33;;
45246;Laerm;31529;51.158;7.354;2023-01-30T00:26:22;44.94;36.24;59.32;;
45246;Laerm;31529;51.158;7.354;2023-01-30T00:26:52;41.27;33.23;51.06;;
45246;Laerm;31529;51.158;7.354;2023-01-30T00:27:23;48.05;34.61;61.55;;
45246;Laerm;31529;51.158;7.354;2023-01-30T00:27:54;48.08;30.22;63.12;;
45246;Laerm;31529;51.158;7.354;2023-01-30T00:28:26;55.51;36.50;71.02;;
45246;Laerm;31529;51.158;7.354;2023-01-30T00:28:57;54.87;37.62;68.01;;
45246;Laerm;31529;51.158;7.354;2023-01-30T00:29:27;47.25;35.66;61.98;;
45246;Laerm;31529;51.158;7.354;2023-01-30T00:29:58;61.90;38.18;76.31;;
45246;Laerm;31529;51.158;7.354;2023-01-30T00:30:29;57.36;36.50;71.47;;
45246;Laerm;31529;51.158;7.354;2023-01-30T00:31:00;47.37;34.61;61.51;;
45246;Laerm;31529;51.158;7.354;2023-01-30T00:31:30;46.14;34.64;62.75;;
45246;Laerm;31529;51.158;7.354;2023-01-30T00:32:01;43.43;33.74;53.55;;
45246;Laerm;31529;51.158;7.354;2023-01-30T00:32:32;42.40;34.61;56.71;;
45246;Laerm;31529;51.158;7.354;2023-01-30T00:33:03;46.10;33.23;61.86;;
45246;Laerm;31529;51.158;7.354;2023-01-30T00:33:34;45.41;32.65;58.93;;
45246;Laerm;31529;51.158;7.354;2023-01-30T00:34:05;44.24;34.61;58.63;;
45246;Laerm;31529;51.158;7.354;2023-01-30T00:34:36;49.67;36.40;63.50;;
45246;Laerm;31529;51.158;7.354;2023-01-30T00:35:07;45.51;33.74;60.58;;
45246;Laerm;31529;51.158;7.354;2023-01-30T00:35:42;48.93;33.74;62.68;;
45246;Laerm;31529;51.158;7.354;2023-01-30T00:36:12;46.42;36.50;59.67;;
45246;Laerm;31529;51.158;7.354;2023-01-30T00:36:43;55.83;38.97;69.56;;
45246;Laerm;31529;51.158;7.354;2023-01-30T00:37:14;66.78;39.51;80.72;;
45246;Laerm;31529;51.158;7.354;2023-01-30T00:37:45;49.90;34.99;64.90;;
45246;Laerm;31529;51.158;7.354;2023-01-30T00:38:16;44.25;34.20;60.17;;
45246;Laerm;31529;51.158;7.354;2023-01-30T00:38:47;53.00;30.22;68.36;;
45246;Laerm;31529;51.158;7.354;2023-01-30T00:39:17;66.77;38.18;81.93;;
45246;Laerm;31529;51.158;7.354;2023-01-30T00:39:48;50.74;36.50;66.07;;
45246;Laerm;31529;51.158;7.354;2023-01-30T00:40:19;50.71;36.24;64.17;;
45246;Laerm;31529;51.158;7.354;2023-01-30T00:40:50;54.03;34.99;67.07;;
45246;Laerm;31529;51.158;7.354;2023-01-30T00:41:20;52.24;36.75;65.72;;
45246;Laerm;31529;51.158;7.354;2023-01-30T00:41:52;46.14;34.99;61.13;;
45246;Laerm;31529;51.158;7.354;2023-01-30T00:42:41;50.52;34.61;64.02;;
45246;Laerm;31529;51.158;7.354;2023-01-30T00:43:31;50.53;33.23;65.28;;
45246;Laerm;31529;51.158;7.354;2023-01-30T00:44:20;61.90;33.85;77.58;;
45246;Laerm;31529;51.158;7.354;2023-01-30T00:45:10;48.02;35.66;65.03;;
45246;Laerm;31529;51.158;7.354;2023-01-30T00:46:00;53.79;37.42;70.14;;
45246;Laerm;31529;51.158;7.354;2023-01-30T00:46:50;55.31;37.21;69.72;;
45246;Laerm;31529;51.158;7.354;2023-01-30T00:47:38;49.52;35.34;63.60;;
45246;Laerm;31529;51.158;7.354;2023-01-30T00:48:09;51.51;35.66;65.15;;
45246;Laerm;31529;51.158;7.354;2023-01-30T00:48:39;50.58;35.89;63.99;;
45246;Laerm;31529;51.158;7.354;2023-01-30T00:49:10;50.28;38.18;66.62;;
45246;Laerm;31529;51.158;7.354;2023-01-30T00:49:42;53.84;36.50;65.78;;
45246;Laerm;31529;51.158;7.354;2023-01-30T00:50:12;53.33;36.99;65.43;;
45246;Laerm;31529;51.158;7.354;2023-01-30T00:50:43;48.97;37.42;61.39;;
45246;Laerm;31529;51.158;7.354;2023-01-30T00:51:14;47.87;36.24;61.46;;
45246;Laerm;31529;51.158;7.354;2023-01-30T00:51:45;63.81;40.11;77.85;;
45246;Laerm;31529;51.158;7.354;2023-01-30T00:52:15;45.83;37.42;58.37;;
45246;Laerm;31529;51.158;7.354;2023-01-30T00:52:46;50.46;37.21;64.77;;
45246;Laerm;31529;51.158;7.354;2023-01-30T00:53:17;55.16;37.21;67.08;;
45246;Laerm;31529;51.158;7.354;2023-01-30T00:53:48;54.43;34.20;67.04;;
45246;Laerm;31529;51.158;7.354;2023-01-30T00:54:18;54.59;36.75;70.22;;
45246;Laerm;31529;51.158;7.354;2023-01-30T00:54:49;58.14;37.21;71.65;;
45246;Laerm;31529;51.158;7.354;2023-01-30T00:55:21;56.66;38.51;69.62;;
45246;Laerm;31529;51.158;7.354;2023-01-30T00:55:52;49.16;34.99;63.95;;
45246;Laerm;31529;51.158;7.354;2023-01-30T00:56:24;50.56;36.24;65.07;;
45246;Laerm;31529;51.158;7.354;2023-01-30T00:56:54;46.41;35.34;60.60;;
45246;Laerm;31529;51.158;7.354;2023-01-30T00:57:25;52.34;35.34;66.24;;
45246;Laerm;31529;51.158;7.354;2023-01-30T00:57:56;48.23;36.24;61.50;;
45246;Laerm;31529;51.158;7.354;2023-01-30T00:58:27;50.11;34.99;65.08;;
45246;Laerm;31529;51.158;7.354;2023-01-30T00:58:57;46.17;31.98;61.29;;
45246;Laerm;31529;51.158;7.354;2023-01-30T00:59:28;46.83;34.20;59.07;;
45246;Laerm;31529;51.158;7.354;2023-01-30T00:59:59;44.53;31.98;55.58;;
45246;Laerm;31529;51.158;7.354;2023-01-30T01:00:30;46.89;33.74;59.75;;
45246;Laerm;31529;51.158;7.354;2023-01-30T01:01:01;45.47;33.74;57.70;;
45246;Laerm;31529;51.158;7.354;2023-01-30T01:01:32;44.58;28.97;59.60;;
45246;Laerm;31529;51.158;7.354;2023-01-30T01:02:02;42.49;33.23;54.26;;
45246;Laerm;31529;51.158;7.354;2023-01-30T01:02:34;50.15;34.61;65.26;;
45246;Laerm;31529;51.158;7.354;2023-01-30T01:03:05;45.81;35.66;59.34;;
45246;Laerm;31529;51.158;7.354;2023-01-30T01:03:36;49.19;36.50;63.16;;
45246;Laerm;31529;51.158;7.354;2023-01-30T01:04:06;51.79;37.62;64.10;;
45246;Laerm;31529;51.158;7.354;2023-01-30T01:04:38;46.46;33.23;60.56;;
45246;Laerm;31529;51.158;7.354;2023-01-30T01:05:15;66.44;34.99;81.64;;
45246;Laerm;31529;51.158;7.354;2023-01-30T01:05:46;50.50;37.42;65.64;;
45246;Laerm;31529;51.158;7.354;2023-01-30T01:06:16;47.17;34.99;60.52;;
45246;Laerm;31529;51.158;7.354;2023-01-30T01:06:47;45.73;33.74;56.93;;
45246;Laerm;31529;51.158;7.354;2023-01-30T01:07:18;45.27;37.21;55.53;;
45246;Laerm;31529;51.158;7.354;2023-01-30T01:07:49;42.26;33.74;53.57;;
45246;Laerm;31529;51.158;7.354;2023-01-30T01:08:19;43.92;34.99;60.04;;
45246;Laerm;31529;51.158;7.354;2023-01-30T01:08:52;48.27;35.96;59.86;;
45246;Laerm;31529;51.158;7.354;2023-01-30T01:09:22;45.81;37.42;57.32;;
45246;Laerm;31529;51.158;7.354;2023-01-30T01:09:53;43.73;35.96;59.04;;
45246;Laerm;31529;51.158;7.354;2023-01-30T01:10:24;45.88;35.66;60.52;;
45246;Laerm;31529;51.158;7.354;2023-01-30T01:10:55;45.97;36.50;56.69;;
45246;Laerm;31529;51.158;7.354;2023-01-30T01:11:25;46.31;37.62;59.23;;
45246;Laerm;31529;51.158;7.354;2023-01-30T01:11:56;72.67;42.71;88.11;;
45246;Laerm;31529;51.158;7.354;2023-01-30T01:12:27;45.32;34.20;57.28;;
45246;Laerm;31529;51.158;7.354;2023-01-30T01:12:58;44.45;33.23;59.91;;
45246;Laerm;31529;51.158;7.354;2023-01-30T01:13:28;44.99;33.23;56.70;;
45246;Laerm;31529;51.158;7.354;2023-01-30T01:14:00;42.60;33.23;53.34;;
45246;Laerm;31529;51.158;7.354;2023-01-30T01:14:31;43.62;31.19;56.11;;
45246;Laerm;31529;51.158;7.354;2023-01-30T01:15:02;39.00;30.22;44.84;;
45246;Laerm;31529;51.158;7.354;2023-01-30T01:15:33;43.19;32.65;54.83;;
45246;Laerm;31529;51.158;7.354;2023-01-30T01:16:04;41.38;32.65;52.13;;
45246;Laerm;31529;51.158;7.354;2023-01-30T01:16:34;43.34;31.19;56.22;;
45246;Laerm;31529;51.158;7.354;2023-01-30T01:17:05;47.24;34.20;60.55;;
45246;Laerm;31529;51.158;7.354;2023-01-30T01:17:36;43.21;33.74;54.19;;
45246;Laerm;31529;51.158;7.354;2023-01-30T01:18:07;47.66;35.96;59.68;;
45246;Laerm;31529;51.158;7.354;2023-01-30T01:18:38;55.60;35.66;67.38;;
45246;Laerm;31529;51.158;7.354;2023-01-30T01:19:09;46.73;33.74;65.70;;
45246;Laerm;31529;51.158;7.354;2023-01-30T01:19:39;43.26;34.20;57.09;;
45246;Laerm;31529;51.158;7.354;2023-01-30T01:20:10;43.90;30.22;56.03;;
45246;Laerm;31529;51.158;7.354;2023-01-30T01:20:42;42.56;31.19;53.92;;
45246;Laerm;31529;51.158;7.354;2023-01-30T01:21:13;62.94;31.98;76.09;;
45246;Laerm;31529;51.158;7.354;2023-01-30T01:21:43;45.23;34.99;53.22;;
45246;Laerm;31529;51.158;7.354;2023-01-30T01:22:14;43.08;32.65;53.55;;
45246;Laerm;31529;51.158;7.354;2023-01-30T01:22:45;40.60;27.21;52.43;;
45246;Laerm;31529;51.158;7.354;2023-01-30T01:23:19;43.72;34.61;59.23;;
45246;Laerm;31529;51.158;7.354;2023-01-30T01:23:50;42.64;32.65;55.43;;
45246;Laerm;31529;51.158;7.354;2023-01-30T01:24:21;43.17;32.30;60.25;;
45246;Laerm;31529;51.158;7.354;2023-01-30T01:24:52;44.15;31.19;56.71;;
45246;Laerm;31529;51.158;7.354;2023-01-30T01:25:23;42.47;30.22;51.97;;
45246;Laerm;31529;51.158;7.354;2023-01-30T01:25:54;42.07;32.65;54.55;;
45246;Laerm;31529;51.158;7.354;2023-01-30T01:26:25;42.92;33.74;54.38;;
45246;Laerm;31529;51.158;7.354;2023-01-30T01:26:56;41.09;34.61;54.07;;
45246;Laerm;31529;51.158;7.354;2023-01-30T01:27:28;59.65;32.65;73.95;;
45246;Laerm;31529;51.158;7.354;2023-01-30T01:27:58;58.40;41.68;71.78;;
45246;Laerm;31529;51.158;7.354;2023-01-30T01:28:29;42.21;31.19;51.29;;
45246;Laerm;31529;51.158;7.354;2023-01-30T01:29:00;38.93;28.97;46.48;;
45246;Laerm;31529;51.158;7.354;2023-01-30T01:29:31;41.29;33.74;52.92;;
45246;Laerm;31529;51.158;7.354;2023-01-30T01:30:01;41.15;31.98;48.25;;
45246;Laerm;31529;51.158;7.354;2023-01-30T01:30:32;38.98;33.23;47.10;;
45246;Laerm;31529;51.158;7.354;2023-01-30T01:31:07;44.91;34.20;58.37;;
45246;Laerm;31529;51.158;7.354;2023-01-30T01:31:38;50.05;35.96;64.34;;
45246;Laerm;31529;51.158;7.354;2023-01-30T01:32:08;39.63;33.23;48.70;;
45246;Laerm;31529;51.158;7.354;2023-01-30T01:32:39;64.08;38.82;78.71;;
45246;Laerm;31529;51.158;7.354;2023-01-30T01:33:10;45.23;35.34;55.21;;
45246;Laerm;31529;51.158;7.354;2023-01-30T01:33:41;61.54;40.33;74.35;;
45246;Laerm;31529;51.158;7.354;2023-01-30T01:34:11;47.13;34.99;58.01;;
45246;Laerm;31529;51.158;7.354;2023-01-30T01:34:42;43.28;31.19;55.81;;
45246;Laerm;31529;51.158;7.354;2023-01-30T01:35:13;48.13;36.99;57.48;;
45246;Laerm;31529;51.158;7.354;2023-01-30T01:35:44;61.46;37.62;75.83;;
45246;Laerm;31529;51.158;7.354;2023-01-30T01:36:16;44.45;36.50;57.99;;
45246;Laerm;31529;51.158;7.354;2023-01-30T01:36:48;53.82;35.96;67.46;;
45246;Laerm;31529;51.158;7.354;2023-01-30T01:37:18;51.23;36.24;66.56;;
45246;Laerm;31529;51.158;7.354;2023-01-30T01:37:52;45.88;35.34;58.86;;
45246;Laerm;31529;51.158;7.354;2023-01-30T01:38:24;46.40;35.66;58.15;;
45246;Laerm;31529;51.158;7.354;2023-01-30T01:38:54;51.84;35.96;68.31;;
45246;Laerm;31529;51.158;7.354;2023-01-30T01:39:25;49.98;35.34;66.55;;
45246;Laerm;31529;51.158;7.354;2023-01-30T01:40:17;44.21;35.34;56.29;;
45246;Laerm;31529;51.158;7.354;2023-01-30T01:41:07;50.98;35.34;66.90;;
45246;Laerm;31529;51.158;7.354;2023-01-30T01:41:39;44.07;34.61;54.87;;
45246;Laerm;31529;51.158;7.354;2023-01-30T01:42:10;41.62;35.96;53.46;;
45246;Laerm;31529;51.158;7.354;2023-01-30T01:42:41;43.22;34.99;57.54;;
45246;Laerm;31529;51.158;7.354;2023-01-30T01:43:18;46.10;36.24;57.00;;
45246;Laerm;31529;51.158;7.354;2023-01-30T01:44:26;43.88;35.66;57.56;;
45246;Laerm;31529;51.158;7.354;2023-01-30T01:44:59;50.11;35.66;65.78;;
45246;Laerm;31529;51.158;7.354;2023-01-30T01:45:31;48.65;35.96;61.51;;
45246;Laerm;31529;51.158;7.354;2023-01-30T01:46:08;47.18;36.99;64.32;;
45246;Laerm;31529;51.158;7.354;2023-01-30T01:46:47;45.79;35.66;62.00;;
45246;Laerm;31529;51.158;7.354;2023-01-30T01:47:20;50.68;39.11;65.74;;
45246;Laerm;31529;51.158;7.354;2023-01-30T01:48:04;50.91;38.18;65.25;;
45246;Laerm;31529;51.158;7.354;2023-01-30T01:48:41;50.72;36.75;65.04;;
45246;Laerm;31529;51.158;7.354;2023-01-30T01:49:15;53.27;38.35;71.37;;
45246;Laerm;31529;51.158;7.354;2023-01-30T01:49:46;49.54;38.18;64.72;;
45246;Laerm;31529;51.158;7.354;2023-01-30T01:50:19;50.42;39.25;65.73;;
45246;Laerm;31529;51.158;7.354;2023-01-30T01:51:02;59.23;40.08;74.01;;
45246;Laerm;31529;51.158;7.354;2023-01-30T01:51:37;63.26;42.12;76.27;;
45246;Laerm;31529;51.158;7.354;2023-01-30T01:52:10;61.39;38.00;75.87;;
45246;Laerm;31529;51.158;7.354;2023-01-30T01:52:42;49.32;35.96;63.76;;
45246;Laerm;31529;51.158;7.354;2023-01-30T01:53:14;51.11;36.75;66.76;;
45246;Laerm;31529;51.158;7.354;2023-01-30T01:53:52;57.61;38.82;69.53;;
45246;Laerm;31529;51.158;7.354;2023-01-30T01:54:28;64.85;40.73;79.92;;
45246;Laerm;31529;51.158;7.354;2023-01-30T01:55:02;51.60;35.96;64.16;;
45246;Laerm;31529;51.158;7.354;2023-01-30T01:55:35;54.48;36.99;69.47;;
45246;Laerm;31529;51.158;7.354;2023-01-30T01:56:06;56.32;39.65;68.14;;
45246;Laerm;31529;51.158;7.354;2023-01-30T01:56:38;53.68;39.88;69.05;;
45246;Laerm;31529;51.158;7.354;2023-01-30T01:57:15;62.14;41.44;75.40;;
45246;Laerm;31529;51.158;7.354;2023-01-30T01:57:49;53.47;39.51;69.79;;
45246;Laerm;31529;51.158;7.354;2023-01-30T01:58:24;55.31;36.50;69.73;;
45246;Laerm;31529;51.158;7.354;2023-01-30T01:59:00;53.67;38.18;66.34;;
45246;Laerm;31529;51.158;7.354;2023-01-30T01:59:33;57.02;39.25;70.23;;
45246;Laerm;31529;51.158;7.354;2023-01-30T02:00:09;60.25;41.60;76.28;;
45246;Laerm;31529;51.158;7.354;2023-01-30T02:00:41;60.97;41.36;74.59;;
45246;Laerm;31529;51.158;7.354;2023-01-30T02:01:11;52.65;39.11;68.73;;
45246;Laerm;31529;51.158;7.354;2023-01-30T02:01:42;55.00;41.10;66.65;;
45246;Laerm;31529;51.158;7.354;2023-01-30T02:02:13;64.31;43.44;75.99;;
45246;Laerm;31529;51.158;7.354;2023-01-30T02:03:46;57.39;40.53;71.68;;
45246;Laerm;31529;51.158;7.354;2023-01-30T02:04:18;57.33;41.98;70.13;;
45246;Laerm;31529;51.158;7.354;2023-01-30T02:05:09;61.01;40.92;77.82;;
45246;Laerm;31529;51.158;7.354;2023-01-30T02:05:42;62.61;41.68;76.40;;
45246;Laerm;31529;51.158;7.354;2023-01-30T02:06:14;56.77;41.98;72.11;;
45246;Laerm;31529;51.158;7.354;2023-01-30T02:06:46;65.43;42.52;79.28;;
45246;Laerm;31529;51.158;7.354;2023-01-30T02:07:17;54.29;38.67;67.72;;
45246;Laerm;31529;51.158;7.354;2023-01-30T02:07:52;55.73;41.28;70.00;;
45246;Laerm;31529;51.158;7.354;2023-01-30T02:08:34;64.28;42.83;76.67;;
45246;Laerm;31529;51.158;7.354;2023-01-30T02:09:07;52.09;40.11;67.32;;
45246;Laerm;31529;51.158;7.354;2023-01-30T02:09:39;60.43;42.33;73.45;;
45246;Laerm;31529;51.158;7.354;2023-01-30T02:10:12;51.65;39.51;67.32;;
45246;Laerm;31529;51.158;7.354;2023-01-30T02:10:49;54.57;40.73;67.62;;
45246;Laerm;31529;51.158;7.354;2023-01-30T02:11:30;54.71;40.33;68.74;;
45246;Laerm;31529;51.158;7.354;2023-01-30T02:12:04;49.45;38.67;66.63;;
45246;Laerm;31529;51.158;7.354;2023-01-30T02:12:35;54.92;38.35;67.37;;
45246;Laerm;31529;51.158;7.354;2023-01-30T02:13:07;61.89;44.45;73.42;;
45246;Laerm;31529;51.158;7.354;2023-01-30T02:13:38;58.50;42.77;71.92;;
45246;Laerm;31529;51.158;7.354;2023-01-30T02:14:09;55.74;38.51;71.91;;
45246;Laerm;31529;51.158;7.354;2023-01-30T02:14:40;53.01;39.25;69.66;;
45246;Laerm;31529;51.158;7.354;2023-01-30T02:15:12;56.54;41.76;70.88;;
45246;Laerm;31529;51.158;7.354;2023-01-30T02:15:43;60.92;40.33;76.67;;
45246;Laerm;31529;51.158;7.354;2023-01-30T02:16:14;51.37;40.53;66.41;;
45246;Laerm;31529;51.158;7.354;2023-01-30T02:16:44;57.05;40.92;71.98;;
45246;Laerm;31529;51.158;7.354;2023-01-30T02:17:16;57.39;40.63;72.40;;
45246;Laerm;31529;51.158;7.354;2023-01-30T02:17:46;60.76;42.26;72.75;;
45246;Laerm;31529;51.158;7.354;2023-01-30T02:18:17;55.04;41.68;67.91;;
45246;Laerm;31529;51.158;7.354;2023-01-30T02:18:48;56.09;40.73;68.10;;
45246;Laerm;31529;51.158;7.354;2023-01-30T02:22:00;64.30;40.53;76.95;;
45246;Laerm;31529;51.158;7.354;2023-01-30T02:23:41;61.36;42.77;74.82;;
45246;Laerm;31529;51.158;7.354;2023-01-30T02:24:24;57.90;39.64;70.64;;
45246;Laerm;31529;51.158;7.354;2023-01-30T02:27:03;49.37;38.00;66.95;;
45246;Laerm;31529;51.158;7.354;2023-01-30T02:27:14;53.10;39.38;68.74;;
45246;Laerm;31529;51.158;7.354;2023-01-30T02:28:28;54.57;39.25;68.21;;
45246;Laerm;31529;51.158;7.354;2023-01-30T02:31:01;53.47;39.29;69.38;;
45246;Laerm;31529;51.158;7.354;2023-01-30T02:32:23;50.96;38.18;66.70;;
45246;Laerm;31529;51.158;7.354;2023-01-30T02:33:00;65.53;41.10;82.02;;
45246;Laerm;31529;51.158;7.354;2023-01-30T02:33:38;57.27;41.10;73.45;;
45246;Laerm;31529;51.158;7.354;2023-01-30T02:36:14;57.92;38.67;71.09;;
45246;Laerm;31529;51.158;7.354;2023-01-30T02:38:27;65.85;42.39;80.01;;
45246;Laerm;31529;51.158;7.354;2023-01-30T02:40:29;65.50;43.01;80.75;;
45246;Laerm;31529;51.158;7.354;2023-01-30T02:41:16;56.28;38.35;69.28;;
45246;Laerm;31529;51.158;7.354;2023-01-30T02:43:45;64.68;44.65;80.44;;
45246;Laerm;31529;51.158;7.354;2023-01-30T02:44:26;65.71;41.68;81.00;;
45246;Laerm;31529;51.158;7.354;2023-01-30T02:45:51;60.07;41.19;72.29;;
45246;Laerm;31529;51.158;7.354;2023-01-30T02:46:25;56.44;41.10;74.70;;
45246;Laerm;31529;51.158;7.354;2023-01-30T02:47:03;57.70;40.53;71.67;;
45246;Laerm;31529;51.158;7.354;2023-01-30T02:48:08;60.57;43.12;73.32;;
45246;Laerm;31529;51.158;7.354;2023-01-30T02:48:42;61.79;43.84;77.25;;
45246;Laerm;31529;51.158;7.354;2023-01-30T02:49:17;69.18;42.83;82.05;;
45246;Laerm;31529;51.158;7.354;2023-01-30T02:49:51;70.75;42.71;82.18;;
45246;Laerm;31529;51.158;7.354;2023-01-30T02:50:46;60.38;42.46;75.14;;
45246;Laerm;31529;51.158;7.354;2023-01-30T02:51:23;56.39;41.10;69.89;;
45246;Laerm;31529;51.158;7.354;2023-01-30T02:51:57;58.86;41.44;73.26;;
45246;Laerm;31529;51.158;7.354;2023-01-30T02:52:29;59.52;41.01;73.32;;
45246;Laerm;31529;51.158;7.354;2023-01-30T02:53:01;57.65;39.65;70.56;;
45246;Laerm;31529;51.158;7.354;2023-01-30T02:53:33;54.51;39.76;68.78;;
45246;Laerm;31529;51.158;7.354;2023-01-30T02:54:05;53.21;40.11;68.18;;
45246;Laerm;31529;51.158;7.354;2023-01-30T02:54:37;46.62;37.42;63.87;;
45246;Laerm;31529;51.158;7.354;2023-01-30T02:55:08;50.79;38.97;67.88;;
45246;Laerm;31529;51.158;7.354;2023-01-30T02:55:40;50.38;41.28;66.15;;
45246;Laerm;31529;51.158;7.354;2023-01-30T02:56:11;56.80;39.88;70.74;;
45246;Laerm;31529;51.158;7.354;2023-01-30T02:56:49;55.81;39.88;69.97;;
45246;Laerm;31529;51.158;7.354;2023-01-30T02:57:22;63.29;43.69;78.15;;
45246;Laerm;31529;51.158;7.354;2023-01-30T02:57:53;56.38;42.52;71.28;;
45246;Laerm;31529;51.158;7.354;2023-01-30T02:58:25;56.22;40.33;69.32;;
45246;Laerm;31529;51.158;7.354;2023-01-30T02:59:00;54.98;39.76;69.20;;
45246;Laerm;31529;51.158;7.354;2023-01-30T02:59:37;57.02;40.11;75.22;;
45246;Laerm;31529;51.158;7.354;2023-01-30T03:00:09;58.80;41.98;73.64;;
45246;Laerm;31529;51.158;7.354;2023-01-30T03:02:29;59.59;38.18;74.91;;
45246;Laerm;31529;51.158;7.354;2023-01-30T03:03:13;65.14;39.04;81.63;;
45246;Laerm;31529;51.158;7.354;2023-01-30T03:04:32;60.22;41.19;72.06;;
45246;Laerm;31529;51.158;7.354;2023-01-30T03:05:59;58.41;40.73;71.82;;
45246;Laerm;31529;51.158;7.354;2023-01-30T03:06:40;60.00;40.43;74.85;;
45246;Laerm;31529;51.158;7.354;2023-01-30T03:07:23;60.67;43.49;77.44;;
45246;Laerm;31529;51.158;7.354;2023-01-30T03:08:00;64.89;42.83;79.84;;
45246;Laerm;31529;51.158;7.354;2023-01-30T03:10:04;67.77;41.36;85.26;;
45246;Laerm;31529;51.158;7.354;2023-01-30T03:10:37;65.85;40.92;78.23;;
45246;Laerm;31529;51.158;7.354;2023-01-30T03:11:12;60.89;43.06;78.43;;
45246;Laerm;31529;51.158;7.354;2023-01-30T03:13:10;57.36;40.33;72.26;;
45246;Laerm;31529;51.158;7.354;2023-01-30T03:13:46;60.84;41.41;76.49;;
45246;Laerm;31529;51.158;7.354;2023-01-30T03:14:22;54.61;38.51;69.07;;
45246;Laerm;31529;51.158;7.354;2023-01-30T03:14:58;49.95;38.35;68.44;;
45246;Laerm;31529;51.158;7.354;2023-01-30T03:15:39;51.29;38.82;64.97;;
45246;Laerm;31529;51.158;7.354;2023-01-30T03:16:14;60.21;43.74;73.13;;
45246;Laerm;31529;51.158;7.354;2023-01-30T03:16:47;53.56;37.62;70.69;;
45246;Laerm;31529;51.158;7.354;2023-01-30T03:17:21;52.49;41.76;66.89;;
45246;Laerm;31529;51.158;7.354;2023-01-30T03:17:53;63.86;41.76;77.45;;
45246;Laerm;31529;51.158;7.354;2023-01-30T03:18:24;62.38;44.69;73.20;;
45246;Laerm;31529;51.158;7.354;2023-01-30T03:18:55;59.33;44.37;73.86;;
45246;Laerm;31529;51.158;7.354;2023-01-30T03:19:26;60.17;44.02;74.97;;
45246;Laerm;31529;51.158;7.354;2023-01-30T03:19:58;60.48;42.19;74.63;;
45246;Laerm;31529;51.158;7.354;2023-01-30T03:20:29;54.69;42.12;67.42;;
45246;Laerm;31529;51.158;7.354;2023-01-30T03:21:04;62.92;42.77;80.10;;
45246;Laerm;31529;51.158;7.354;2023-01-30T03:21:39;63.65;46.78;79.88;;
45246;Laerm;31529;51.158;7.354;2023-01-30T03:22:10;58.70;46.96;74.98;;
45246;Laerm;31529;51.158;7.354;2023-01-30T03:22:41;62.63;45.87;75.96;;
45246;Laerm;31529;51.158;7.354;2023-01-30T03:23:11;67.95;42.60;83.64;;
45246;Laerm;31529;51.158;7.354;2023-01-30T03:23:44;62.02;42.26;76.46;;
45246;Laerm;31529;51.158;7.354;2023-01-30T03:24:16;66.50;45.87;78.73;;
45246;Laerm;31529;51.158;7.354;2023-01-30T03:24:48;64.56;47.91;79.70;;
45246;Laerm;31529;51.158;7.354;2023-01-30T03:25:20;63.12;45.13;76.89;;
45246;Laerm;31529;51.158;7.354;2023-01-30T03:25:51;59.87;44.61;72.38;;
45246;Laerm;31529;51.158;7.354;2023-01-30T03:26:23;62.29;43.01;79.37;;
45246;Laerm;31529;51.158;7.354;2023-01-30T03:26:57;64.92;43.84;78.87;;
45246;Laerm;31529;51.158;7.354;2023-01-30T03:27:30;69.07;45.53;84.00;;
45246;Laerm;31529;51.158;7.354;2023-01-30T03:28:01;69.62;49.63;84.07;;
45246;Laerm;31529;51.158;7.354;2023-01-30T03:28:33;65.40;43.39;79.96;;
45246;Laerm;31529;51.158;7.354;2023-01-30T03:29:04;61.71;42.52;74.25;;